Terminal Aerodrome Forecast
Issued by NWS

Home | Current Version | Previous Version | Text Only | Print | Product List | Glossary On
Versions: 1 2 3 4 5 6 7 8 9 10 11 12
000
FTUS42 KTAE 262325
TAFDHN
TAF
KDHN 262325Z 2700/2724 VRB05KT P6SM VCSH SCT060
     FM270200 VRB03KT P6SM FEW080 FEW250
     FM271400 11007KT P6SM SCT060=

USA.gov is the U.S. government's official web portal to all federal, state and local government web resources and services.